sensor_id;sensor_type;location;lat;lon;timestamp;pressure;altitude;pressure_sealevel;temperature;humidity
57442;BME280;43284;47.042;15.498;2023-10-08T00:02:27;97494.78;;;12.53;100.00
57442;BME280;43284;47.042;15.498;2023-10-08T00:04:53;97489.72;;;12.48;100.00
57442;BME280;43284;47.042;15.498;2023-10-08T00:07:21;97495.97;;;12.46;100.00
57442;BME280;43284;47.042;15.498;2023-10-08T00:09:52;97495.97;;;12.46;100.00
57442;BME280;43284;47.042;15.498;2023-10-08T00:12:18;97498.72;;;12.44;100.00
57442;BME280;43284;47.042;15.498;2023-10-08T00:14:45;97491.75;;;12.43;100.00
57442;BME280;43284;47.042;15.498;2023-10-08T00:17:14;97481.44;;;12.40;100.00
57442;BME280;43284;47.042;15.498;2023-10-08T00:19:40;97481.34;;;12.42;100.00
57442;BME280;43284;47.042;15.498;2023-10-08T00:22:08;97477.19;;;12.38;100.00
57442;BME280;43284;47.042;15.498;2023-10-08T00:24:34;97475.66;;;12.33;100.00
57442;BME280;43284;47.042;15.498;2023-10-08T00:27:00;97468.69;;;12.32;100.00
57442;BME280;43284;47.042;15.498;2023-10-08T00:29:26;97466.91;;;12.33;100.00
57442;BME280;43284;47.042;15.498;2023-10-08T00:31:57;97462.63;;;12.32;100.00
57442;BME280;43284;47.042;15.498;2023-10-08T00:34:22;97469.53;;;12.33;100.00
57442;BME280;43284;47.042;15.498;2023-10-08T00:36:52;97479.34;;;12.29;100.00
57442;BME280;43284;47.042;15.498;2023-10-08T00:39:19;97472.56;;;12.25;100.00
57442;BME280;43284;47.042;15.498;2023-10-08T00:41:49;97472.78;;;12.21;100.00
57442;BME280;43284;47.042;15.498;2023-10-08T00:44:24;97470.72;;;12.10;100.00
57442;BME280;43284;47.042;15.498;2023-10-08T00:46:58;97468.94;;;12.10;100.00
57442;BME280;43284;47.042;15.498;2023-10-08T00:49:27;97461.47;;;12.03;100.00
57442;BME280;43284;47.042;15.498;2023-10-08T00:52:09;97461.59;;;12.00;100.00
57442;BME280;43284;47.042;15.498;2023-10-08T00:54:39;97467.06;;;11.95;100.00
57442;BME280;43284;47.042;15.498;2023-10-08T00:57:31;97460.22;;;11.92;100.00
57442;BME280;43284;47.042;15.498;2023-10-08T01:00:00;97464.81;;;11.87;100.00
57442;BME280;43284;47.042;15.498;2023-10-08T01:02:30;97473.72;;;11.83;100.00
57442;BME280;43284;47.042;15.498;2023-10-08T01:05:13;97465.09;;;11.81;100.00
57442;BME280;43284;47.042;15.498;2023-10-08T01:07:41;97465.56;;;11.72;100.00
57442;BME280;43284;47.042;15.498;2023-10-08T01:10:14;97458.88;;;11.65;100.00
57442;BME280;43284;47.042;15.498;2023-10-08T01:12:44;97469.38;;;11.65;100.00
57442;BME280;43284;47.042;15.498;2023-10-08T01:15:21;97466.75;;;11.65;100.00
57442;BME280;43284;47.042;15.498;2023-10-08T01:17:54;97477.31;;;11.63;100.00
57442;BME280;43284;47.042;15.498;2023-10-08T01:20:27;97475.97;;;11.54;100.00
57442;BME280;43284;47.042;15.498;2023-10-08T01:23:09;97481.91;;;11.58;100.00
57442;BME280;43284;47.042;15.498;2023-10-08T01:25:44;97459.34;;;11.55;100.00
57442;BME280;43284;47.042;15.498;2023-10-08T01:28:28;97457.66;;;11.54;100.00
57442;BME280;43284;47.042;15.498;2023-10-08T01:30:58;97467.34;;;11.52;100.00
57442;BME280;43284;47.042;15.498;2023-10-08T01:33:29;97464.25;;;11.44;100.00
57442;BME280;43284;47.042;15.498;2023-10-08T01:35:56;97461.00;;;11.39;100.00
57442;BME280;43284;47.042;15.498;2023-10-08T01:38:31;97442.75;;;11.38;100.00
57442;BME280;43284;47.042;15.498;2023-10-08T01:41:00;97440.19;;;11.36;100.00
57442;BME280;43284;47.042;15.498;2023-10-08T01:43:30;97447.31;;;11.32;100.00
57442;BME280;43284;47.042;15.498;2023-10-08T01:45:56;97438.91;;;11.26;100.00
57442;BME280;43284;47.042;15.498;2023-10-08T01:48:21;97428.59;;;11.23;100.00
57442;BME280;43284;47.042;15.498;2023-10-08T01:50:59;97427.81;;;11.21;100.00
57442;BME280;43284;47.042;15.498;2023-10-08T01:53:27;97421.81;;;11.19;100.00
57442;BME280;43284;47.042;15.498;2023-10-08T01:55:53;97424.59;;;11.16;100.00
57442;BME280;43284;47.042;15.498;2023-10-08T01:58:21;97409.88;;;11.13;100.00
57442;BME280;43284;47.042;15.498;2023-10-08T02:00:48;97417.41;;;11.19;100.00
57442;BME280;43284;47.042;15.498;2023-10-08T02:03:15;97428.31;;;11.10;100.00
57442;BME280;43284;47.042;15.498;2023-10-08T02:05:43;97422.41;;;11.06;100.00
57442;BME280;43284;47.042;15.498;2023-10-08T02:08:14;97408.81;;;10.98;100.00
57442;BME280;43284;47.042;15.498;2023-10-08T02:10:41;97416.72;;;10.97;100.00
57442;BME280;43284;47.042;15.498;2023-10-08T02:13:08;97412.50;;;10.94;100.00
57442;BME280;43284;47.042;15.498;2023-10-08T02:15:43;97417.78;;;10.92;100.00
57442;BME280;43284;47.042;15.498;2023-10-08T02:18:09;97426.69;;;10.88;100.00
57442;BME280;43284;47.042;15.498;2023-10-08T02:20:34;97418.38;;;10.80;100.00
57442;BME280;43284;47.042;15.498;2023-10-08T02:23:00;97420.97;;;10.80;100.00
57442;BME280;43284;47.042;15.498;2023-10-08T02:25:26;97417.59;;;10.78;100.00
57442;BME280;43284;47.042;15.498;2023-10-08T02:27:52;97411.78;;;10.71;100.00
57442;BME280;43284;47.042;15.498;2023-10-08T02:30:18;97416.28;;;10.68;100.00
57442;BME280;43284;47.042;15.498;2023-10-08T02:32:44;97405.91;;;10.66;100.00
57442;BME280;43284;47.042;15.498;2023-10-08T02:35:11;97405.91;;;10.66;100.00
57442;BME280;43284;47.042;15.498;2023-10-08T02:37:38;97407.72;;;10.64;100.00
57442;BME280;43284;47.042;15.498;2023-10-08T02:40:08;97400.53;;;10.69;100.00
57442;BME280;43284;47.042;15.498;2023-10-08T02:42:52;97400.81;;;10.63;100.00
57442;BME280;43284;47.042;15.498;2023-10-08T02:45:25;97400.94;;;10.60;100.00
57442;BME280;43284;47.042;15.498;2023-10-08T02:47:50;97398.47;;;10.57;100.00
57442;BME280;43284;47.042;15.498;2023-10-08T02:50:18;97402.19;;;10.51;100.00
57442;BME280;43284;47.042;15.498;2023-10-08T02:52:44;97411.13;;;10.47;100.00
57442;BME280;43284;47.042;15.498;2023-10-08T02:55:10;97409.34;;;10.48;100.00
57442;BME280;43284;47.042;15.498;2023-10-08T02:57:48;97411.81;;;10.51;100.00
57442;BME280;43284;47.042;15.498;2023-10-08T03:00:16;97407.56;;;10.48;100.00
57442;BME280;43284;47.042;15.498;2023-10-08T03:02:44;97402.41;;;10.47;100.00
57442;BME280;43284;47.042;15.498;2023-10-08T03:05:12;97407.56;;;10.48;100.00
57442;BME280;43284;47.042;15.498;2023-10-08T03:07:38;97401.72;;;10.43;100.00
57442;BME280;43284;47.042;15.498;2023-10-08T03:10:05;97409.56;;;10.43;100.00
57442;BME280;43284;47.042;15.498;2023-10-08T03:12:51;97401.81;;;10.40;100.00
57442;BME280;43284;47.042;15.498;2023-10-08T03:15:16;97398.22;;;10.43;100.00
57442;BME280;43284;47.042;15.498;2023-10-08T03:17:54;97398.75;;;10.51;100.00
57442;BME280;43284;47.042;15.498;2023-10-08T03:20:22;97398.88;;;10.48;100.00
57442;BME280;43284;47.042;15.498;2023-10-08T03:23:07;97395.34;;;10.49;100.00
57442;BME280;43284;47.042;15.498;2023-10-08T03:25:59;97396.28;;;10.48;100.00
57442;BME280;43284;47.042;15.498;2023-10-08T03:28:37;97392.72;;;10.49;100.00
57442;BME280;43284;47.042;15.498;2023-10-08T03:31:03;97390.63;;;10.57;100.00
57442;BME280;43284;47.042;15.498;2023-10-08T03:33:39;97391.41;;;10.59;100.00
57442;BME280;43284;47.042;15.498;2023-10-08T03:36:05;97382.72;;;10.59;100.00
57442;BME280;43284;47.042;15.498;2023-10-08T03:38:47;97381.78;;;10.60;100.00
57442;BME280;43284;47.042;15.498;2023-10-08T03:41:26;97377.63;;;10.56;100.00
57442;BME280;43284;47.042;15.498;2023-10-08T03:43:56;97372.47;;;10.54;100.00
57442;BME280;43284;47.042;15.498;2023-10-08T03:46:32;97382.16;;;10.52;100.00
57442;BME280;43284;47.042;15.498;2023-10-08T03:49:05;97373.44;;;10.51;100.00
57442;BME280;43284;47.042;15.498;2023-10-08T03:51:37;97373.53;;;10.50;100.00
57442;BME280;43284;47.042;15.498;2023-10-08T03:54:06;97379.41;;;10.55;100.00
57442;BME280;43284;47.042;15.498;2023-10-08T03:56:34;97379.59;;;10.50;100.00
57442;BME280;43284;47.042;15.498;2023-10-08T03:59:04;97377.13;;;10.47;100.00
57442;BME280;43284;47.042;15.498;2023-10-08T04:01:41;97367.72;;;10.43;100.00
57442;BME280;43284;47.042;15.498;2023-10-08T04:04:07;97381.84;;;10.39;100.00
57442;BME280;43284;47.042;15.498;2023-10-08T04:06:39;97384.47;;;10.39;100.00
57442;BME280;43284;47.042;15.498;2023-10-08T04:09:12;97382.75;;;10.38;100.00
57442;BME280;43284;47.042;15.498;2023-10-08T04:11:43;97373.94;;;10.41;100.00
57442;BME280;43284;47.042;15.498;2023-10-08T04:14:13;97373.75;;;10.45;100.00
57442;BME280;43284;47.042;15.498;2023-10-08T04:16:41;97380.66;;;10.46;100.00
57442;BME280;43284;47.042;15.498;2023-10-08T04:19:07;97373.88;;;10.42;100.00
57442;BME280;43284;47.042;15.498;2023-10-08T04:21:33;97368.78;;;10.39;100.00
57442;BME280;43284;47.042;15.498;2023-10-08T04:24:02;97374.78;;;10.41;100.00
57442;BME280;43284;47.042;15.498;2023-10-08T04:26:30;97378.81;;;10.48;100.00
57442;BME280;43284;47.042;15.498;2023-10-08T04:28:58;97381.66;;;10.44;100.00
57442;BME280;43284;47.042;15.498;2023-10-08T04:31:27;97371.13;;;10.45;100.00
57442;BME280;43284;47.042;15.498;2023-10-08T04:34:02;97376.78;;;10.55;100.00
57442;BME280;43284;47.042;15.498;2023-10-08T04:36:34;97359.09;;;10.60;100.00
57442;BME280;43284;47.042;15.498;2023-10-08T04:38:59;97372.06;;;10.63;100.00
57442;BME280;43284;47.042;15.498;2023-10-08T04:41:30;97376.72;;;10.57;100.00
57442;BME280;43284;47.042;15.498;2023-10-08T04:43:56;97370.78;;;10.53;100.00
57442;BME280;43284;47.042;15.498;2023-10-08T04:46:22;97377.78;;;10.52;100.00
57442;BME280;43284;47.042;15.498;2023-10-08T04:49:13;97368.44;;;10.47;100.00
57442;BME280;43284;47.042;15.498;2023-10-08T04:51:58;97365.03;;;10.45;100.00
57442;BME280;43284;47.042;15.498;2023-10-08T04:54:28;97361.53;;;10.46;100.00
57442;BME280;43284;47.042;15.498;2023-10-08T04:57:00;97350.13;;;10.47;100.00
57442;BME280;43284;47.042;15.498;2023-10-08T04:59:29;97359.53;;;10.51;100.00
57442;BME280;43284;47.042;15.498;2023-10-08T05:02:05;97355.16;;;10.51;100.00
57442;BME280;43284;47.042;15.498;2023-10-08T05:04:52;97357.97;;;10.47;100.00
57442;BME280;43284;47.042;15.498;2023-10-08T05:07:23;97352.75;;;10.47;100.00
57442;BME280;43284;47.042;15.498;2023-10-08T05:09:52;97352.84;;;10.45;100.00
57442;BME280;43284;47.042;15.498;2023-10-08T05:12:38;97353.63;;;10.47;100.00
57442;BME280;43284;47.042;15.498;2023-10-08T05:15:11;97350.78;;;10.52;100.00
57442;BME280;43284;47.042;15.498;2023-10-08T05:17:45;97353.25;;;10.55;100.00
57442;BME280;43284;47.042;15.498;2023-10-08T05:22:55;97354.03;;;10.57;100.00
57442;BME280;43284;47.042;15.498;2023-10-08T05:25:42;97345.91;;;10.63;100.00
57442;BME280;43284;47.042;15.498;2023-10-08T05:28:23;97339.84;;;10.63;100.00
57442;BME280;43284;47.042;15.498;2023-10-08T05:30:52;97359.31;;;10.56;100.00
57442;BME280;43284;47.042;15.498;2023-10-08T05:33:37;97351.34;;;10.59;100.00
57442;BME280;43284;47.042;15.498;2023-10-08T05:36:12;97352.13;;;10.61;100.00
57442;BME280;43284;47.042;15.498;2023-10-08T05:38:43;97352.97;;;10.61;100.00
57442;BME280;43284;47.042;15.498;2023-10-08T05:41:27;97353.59;;;10.66;100.00
57442;BME280;43284;47.042;15.498;2023-10-08T05:44:16;97356.94;;;10.70;100.00
57442;BME280;43284;47.042;15.498;2023-10-08T05:46:44;97372.41;;;10.75;100.00
57442;BME280;43284;47.042;15.498;2023-10-08T05:49:19;97371.91;;;11.04;100.00
57442;BME280;43284;47.042;15.498;2023-10-08T05:51:57;97359.63;;;10.87;100.00
57442;BME280;43284;47.042;15.498;2023-10-08T05:54:29;97367.81;;;10.80;100.00
57442;BME280;43284;47.042;15.498;2023-10-08T05:57:04;97359.13;;;10.79;100.00
57442;BME280;43284;47.042;15.498;2023-10-08T05:59:50;97368.59;;;10.82;100.00
57442;BME280;43284;47.042;15.498;2023-10-08T06:02:27;97382.16;;;10.90;100.00
57442;BME280;43284;47.042;15.498;2023-10-08T06:05:13;97382.38;;;10.85;100.00
57442;BME280;43284;47.042;15.498;2023-10-08T06:07:43;97383.28;;;10.84;100.00
57442;BME280;43284;47.042;15.498;2023-10-08T06:10:18;97381.44;;;10.86;100.00
57442;BME280;43284;47.042;15.498;2023-10-08T06:13:00;97386.63;;;10.88;100.00
57442;BME280;43284;47.042;15.498;2023-10-08T06:15:47;97385.56;;;10.92;100.00
57442;BME280;43284;47.042;15.498;2023-10-08T06:18:29;97387.81;;;11.00;100.00
57442;BME280;43284;47.042;15.498;2023-10-08T06:21:02;97381.66;;;11.01;100.00
57442;BME280;43284;47.042;15.498;2023-10-08T06:23:38;97385.13;;;11.01;100.00
57442;BME280;43284;47.042;15.498;2023-10-08T06:26:04;97381.50;;;11.04;100.00
57442;BME280;43284;47.042;15.498;2023-10-08T06:28:40;97382.38;;;11.04;100.00
57442;BME280;43284;47.042;15.498;2023-10-08T06:31:07;97377.00;;;11.07;100.00
57442;BME280;43284;47.042;15.498;2023-10-08T06:33:43;97391.47;;;11.14;100.00
57442;BME280;43284;47.042;15.498;2023-10-08T06:36:10;97391.19;;;11.21;100.00
57442;BME280;43284;47.042;15.498;2023-10-08T06:38:45;97383.34;;;11.21;100.00
57442;BME280;43284;47.042;15.498;2023-10-08T06:41:15;97388.50;;;11.22;100.00
57442;BME280;43284;47.042;15.498;2023-10-08T06:43:47;97393.59;;;11.25;100.00
57442;BME280;43284;47.042;15.498;2023-10-08T06:46:28;97376.03;;;11.27;100.00
57442;BME280;43284;47.042;15.498;2023-10-08T06:48:54;97387.28;;;11.29;100.00
57442;BME280;43284;47.042;15.498;2023-10-08T06:51:19;97391.53;;;11.32;100.00
57442;BME280;43284;47.042;15.498;2023-10-08T06:53:47;97393.25;;;11.33;100.00
57442;BME280;43284;47.042;15.498;2023-10-08T06:56:17;97381.84;;;11.34;100.00
57442;BME280;43284;47.042;15.498;2023-10-08T06:58:45;97386.84;;;11.39;100.00
57442;BME280;43284;47.042;15.498;2023-10-08T07:01:14;97397.19;;;11.42;100.00
57442;BME280;43284;47.042;15.498;2023-10-08T07:03:46;97390.88;;;11.46;100.00
57442;BME280;43284;47.042;15.498;2023-10-08T07:06:14;97395.72;;;11.53;100.00
57442;BME280;43284;47.042;15.498;2023-10-08T07:08:52;97384.13;;;11.59;100.00
57442;BME280;43284;47.042;15.498;2023-10-08T07:11:21;97394.50;;;11.61;100.00
57442;BME280;43284;47.042;15.498;2023-10-08T07:13:48;97388.47;;;11.59;100.00
57442;BME280;43284;47.042;15.498;2023-10-08T07:16:14;97391.75;;;11.64;100.00
57442;BME280;43284;47.042;15.498;2023-10-08T07:18:43;97396.88;;;11.65;100.00
57442;BME280;43284;47.042;15.498;2023-10-08T07:21:21;97397.75;;;11.66;100.00
57442;BME280;43284;47.042;15.498;2023-10-08T07:23:55;97397.66;;;11.67;100.00
57442;BME280;43284;47.042;15.498;2023-10-08T07:26:28;97405.22;;;11.73;100.00
57442;BME280;43284;47.042;15.498;2023-10-08T07:29:05;97399.75;;;11.78;100.00
57442;BME280;43284;47.042;15.498;2023-10-08T07:31:35;97394.28;;;11.83;100.00
57442;BME280;43284;47.042;15.498;2023-10-08T07:34:03;97402.81;;;11.88;100.00
57442;BME280;43284;47.042;15.498;2023-10-08T07:36:50;97408.72;;;11.91;100.00
57442;BME280;43284;47.042;15.498;2023-10-08T07:39:17;97419.06;;;11.94;100.00
57442;BME280;43284;47.042;15.498;2023-10-08T07:42:04;97414.59;;;11.97;100.00
57442;BME280;43284;47.042;15.498;2023-10-08T07:44:34;97411.81;;;12.00;100.00
57442;BME280;43284;47.042;15.498;2023-10-08T07:47:04;97415.97;;;12.04;100.00
57442;BME280;43284;47.042;15.498;2023-10-08T07:49:31;97414.91;;;12.08;100.00
57442;BME280;43284;47.042;15.498;2023-10-08T07:52:00;97409.44;;;12.12;100.00
57442;BME280;43284;47.042;15.498;2023-10-08T07:54:26;97416.97;;;12.19;100.00
57442;BME280;43284;47.042;15.498;2023-10-08T07:56:55;97424.78;;;12.20;100.00
57442;BME280;43284;47.042;15.498;2023-10-08T07:59:45;97429.09;;;12.21;100.00
57442;BME280;43284;47.042;15.498;2023-10-08T08:02:15;97426.22;;;12.26;100.00
57442;BME280;43284;47.042;15.498;2023-10-08T08:04:43;97433.00;;;12.30;100.00
57442;BME280;43284;47.042;15.498;2023-10-08T08:07:16;97428.38;;;12.35;100.00
57442;BME280;43284;47.042;15.498;2023-10-08T08:09:42;97430.75;;;12.40;100.00
57442;BME280;43284;47.042;15.498;2023-10-08T08:12:13;97435.00;;;12.42;100.00
57442;BME280;43284;47.042;15.498;2023-10-08T08:14:39;97437.28;;;12.48;100.00
57442;BME280;43284;47.042;15.498;2023-10-08T08:17:07;97440.38;;;12.56;100.00
57442;BME280;43284;47.042;15.498;2023-10-08T08:19:40;97448.94;;;12.60;100.00
57442;BME280;43284;47.042;15.498;2023-10-08T08:22:06;97446.06;;;12.65;100.00
57442;BME280;43284;47.042;15.498;2023-10-08T08:24:31;97445.81;;;12.69;100.00
57442;BME280;43284;47.042;15.498;2023-10-08T08:27:03;97450.81;;;12.74;100.00
57442;BME280;43284;47.042;15.498;2023-10-08T08:29:37;97446.09;;;12.81;100.00
57442;BME280;43284;47.042;15.498;2023-10-08T08:32:14;97452.03;;;12.84;100.00
57442;BME280;43284;47.042;15.498;2023-10-08T08:34:42;97452.81;;;12.86;100.00
57442;BME280;43284;47.042;15.498;2023-10-08T08:37:12;97449.00;;;12.92;100.00
57442;BME280;43284;47.042;15.498;2023-10-08T08:39:39;97452.25;;;12.97;100.00
57442;BME280;43284;47.042;15.498;2023-10-08T08:42:06;97462.50;;;13.02;100.00
57442;BME280;43284;47.042;15.498;2023-10-08T08:44:35;97460.53;;;13.05;100.00
57442;BME280;43284;47.042;15.498;2023-10-08T08:47:05;97459.38;;;13.11;100.00
57442;BME280;43284;47.042;15.498;2023-10-08T08:49:36;97465.38;;;13.13;100.00
57442;BME280;43284;47.042;15.498;2023-10-08T08:52:05;97465.63;;;13.24;100.00
57442;BME280;43284;47.042;15.498;2023-10-08T08:54:30;97461.00;;;13.29;100.00
57442;BME280;43284;47.042;15.498;2023-10-08T08:56:57;97466.88;;;13.34;100.00
57442;BME280;43284;47.042;15.498;2023-10-08T08:59:27;97460.34;;;13.42;100.00
57442;BME280;43284;47.042;15.498;2023-10-08T09:01:57;97472.13;;;13.50;100.00
57442;BME280;43284;47.042;15.498;2023-10-08T09:04:29;97468.22;;;13.57;100.00
57442;BME280;43284;47.042;15.498;2023-10-08T09:06:56;97476.25;;;13.70;100.00
57442;BME280;43284;47.042;15.498;2023-10-08T09:09:21;97468.88;;;13.77;100.00
57442;BME280;43284;47.042;15.498;2023-10-08T09:11:51;97470.91;;;13.88;100.00
57442;BME280;43284;47.042;15.498;2023-10-08T09:14:24;97473.25;;;13.92;100.00
57442;BME280;43284;47.042;15.498;2023-10-08T09:16:56;97469.25;;;14.01;100.00
57442;BME280;43284;47.042;15.498;2023-10-08T09:19:23;97466.19;;;14.09;100.00
57442;BME280;43284;47.042;15.498;2023-10-08T09:22:07;97476.19;;;14.18;100.00
57442;BME280;43284;47.042;15.498;2023-10-08T09:24:40;97472.25;;;14.25;100.00
57442;BME280;43284;47.042;15.498;2023-10-08T09:27:07;97465.88;;;14.29;100.00
57442;BME280;43284;47.042;15.498;2023-10-08T09:29:36;97472.97;;;14.43;100.00
57442;BME280;43284;47.042;15.498;2023-10-08T09:32:05;97479.13;;;14.58;100.00
57442;BME280;43284;47.042;15.498;2023-10-08T09:34:33;97479.44;;;14.68;100.00
57442;BME280;43284;47.042;15.498;2023-10-08T09:37:00;97497.09;;;14.80;100.00
57442;BME280;43284;47.042;15.498;2023-10-08T09:39:27;97490.53;;;14.87;100.00
57442;BME280;43284;47.042;15.498;2023-10-08T09:41:55;97485.47;;;14.98;100.00
57442;BME280;43284;47.042;15.498;2023-10-08T09:44:22;97478.72;;;15.09;100.00
57442;BME280;43284;47.042;15.498;2023-10-08T09:47:04;97477.25;;;15.17;100.00
57442;BME280;43284;47.042;15.498;2023-10-08T09:52:16;97468.59;;;15.44;100.00
57442;BME280;43284;47.042;15.498;2023-10-08T09:55:08;97471.38;;;15.55;100.00
57442;BME280;43284;47.042;15.498;2023-10-08T09:57:36;97461.00;;;15.66;100.00
57442;BME280;43284;47.042;15.498;2023-10-08T10:00:03;97471.44;;;15.82;100.00
57442;BME280;43284;47.042;15.498;2023-10-08T10:02:31;97468.00;;;15.95;100.00
57442;BME280;43284;47.042;15.498;2023-10-08T10:04:57;97471.00;;;16.03;100.00
57442;BME280;43284;47.042;15.498;2023-10-08T10:07:25;97463.97;;;16.16;100.00
57442;BME280;43284;47.042;15.498;2023-10-08T10:09:51;97477.38;;;16.26;100.00
57442;BME280;43284;47.042;15.498;2023-10-08T10:12:26;97482.88;;;16.36;100.00
57442;BME280;43284;47.042;15.498;2023-10-08T10:14:56;97489.03;;;16.49;100.00
57442;BME280;43284;47.042;15.498;2023-10-08T10:17:25;97483.03;;;16.60;100.00
57442;BME280;43284;47.042;15.498;2023-10-08T10:20:00;97486.72;;;16.70;100.00
57442;BME280;43284;47.042;15.498;2023-10-08T10:22:31;97486.00;;;16.81;100.00
57442;BME280;43284;47.042;15.498;2023-10-08T10:24:59;97482.72;;;16.90;100.00
57442;BME280;43284;47.042;15.498;2023-10-08T10:27:29;97498.81;;;17.00;100.00
57442;BME280;43284;47.042;15.498;2023-10-08T10:30:04;97497.09;;;17.12;100.00
57442;BME280;43284;47.042;15.498;2023-10-08T10:32:34;97487.50;;;17.23;100.00
57442;BME280;43284;47.042;15.498;2023-10-08T10:35:00;97479.75;;;17.33;100.00
57442;BME280;43284;47.042;15.498;2023-10-08T10:37:29;97478.75;;;17.47;100.00
57442;BME280;43284;47.042;15.498;2023-10-08T10:40:06;97488.47;;;17.59;100.00
57442;BME280;43284;47.042;15.498;2023-10-08T10:42:37;97480.72;;;17.69;100.00
57442;BME280;43284;47.042;15.498;2023-10-08T10:45:13;97483.63;;;17.77;100.00
57442;BME280;43284;47.042;15.498;2023-10-08T10:47:59;97492.53;;;17.89;100.00
57442;BME280;43284;47.042;15.498;2023-10-08T10:50:37;97500.50;;;18.00;100.00
57442;BME280;43284;47.042;15.498;2023-10-08T10:53:13;97501.06;;;18.17;100.00
57442;BME280;43284;47.042;15.498;2023-10-08T10:55:40;97490.19;;;18.32;100.00
57442;BME280;43284;47.042;15.498;2023-10-08T10:58:13;97492.44;;;18.50;100.00
57442;BME280;43284;47.042;15.498;2023-10-08T11:00:44;97500.88;;;18.66;100.00
57442;BME280;43284;47.042;15.498;2023-10-08T11:03:10;97489.94;;;18.71;100.00
57442;BME280;43284;47.042;15.498;2023-10-08T11:05:43;97488.41;;;18.80;100.00
57442;BME280;43284;47.042;15.498;2023-10-08T11:08:14;97489.50;;;18.88;100.00
57442;BME280;43284;47.042;15.498;2023-10-08T11:10:42;97481.81;;;18.97;100.00
57442;BME280;43284;47.042;15.498;2023-10-08T11:13:15;97484.38;;;19.09;100.00
57442;BME280;43284;47.042;15.498;2023-10-08T11:15:42;97481.72;;;19.21;100.00
57442;BME280;43284;47.042;15.498;2023-10-08T11:18:10;97487.38;;;19.27;100.00
57442;BME280;43284;47.042;15.498;2023-10-08T11:20:36;97478.13;;;19.33;100.00
57442;BME280;43284;47.042;15.498;2023-10-08T11:23:08;97468.94;;;19.37;100.00
57442;BME280;43284;47.042;15.498;2023-10-08T11:25:54;97463.13;;;19.43;100.00
57442;BME280;43284;47.042;15.498;2023-10-08T11:28:20;97463.72;;;19.58;100.00
57442;BME280;43284;47.042;15.498;2023-10-08T11:30:47;97455.88;;;19.68;100.00
57442;BME280;43284;47.042;15.498;2023-10-08T11:33:17;97461.81;;;19.71;100.00
57442;BME280;43284;47.042;15.498;2023-10-08T11:36:00;97463.97;;;19.78;100.00
57442;BME280;43284;47.042;15.498;2023-10-08T11:38:26;97458.88;;;19.86;100.00
57442;BME280;43284;47.042;15.498;2023-10-08T11:40:55;97462.81;;;19.91;100.00
57442;BME280;43284;47.042;15.498;2023-10-08T11:43:24;97468.75;;;19.95;100.00
57442;BME280;43284;47.042;15.498;2023-10-08T11:45:50;97476.19;;;20.01;100.00
57442;BME280;43284;47.042;15.498;2023-10-08T11:48:16;97481.38;;;20.03;100.00
57442;BME280;43284;47.042;15.498;2023-10-08T11:50:54;97487.16;;;20.08;100.00
57442;BME280;43284;47.042;15.498;2023-10-08T11:53:23;97479.75;;;20.11;100.00
57442;BME280;43284;47.042;15.498;2023-10-08T11:55:50;97490.03;;;20.16;100.00
57442;BME280;43284;47.042;15.498;2023-10-08T11:58:21;97488.94;;;20.19;100.00
57442;BME280;43284;47.042;15.498;2023-10-08T12:01:01;97496.19;;;20.16;100.00
57442;BME280;43284;47.042;15.498;2023-10-08T12:03:29;97501.34;;;20.18;100.00
57442;BME280;43284;47.042;15.498;2023-10-08T12:05:54;97497.63;;;20.21;100.00
57442;BME280;43284;47.042;15.498;2023-10-08T12:08:26;97484.06;;;20.24;100.00
57442;BME280;43284;47.042;15.498;2023-10-08T12:10:55;97496.84;;;20.30;96.27
57442;BME280;43284;47.042;15.498;2023-10-08T12:13:21;97501.84;;;20.44;96.58
57442;BME280;43284;47.042;15.498;2023-10-08T12:15:52;97512.59;;;20.43;72.28
57442;BME280;43284;47.042;15.498;2023-10-08T12:18:18;97510.00;;;20.52;84.84
57442;BME280;43284;47.042;15.498;2023-10-08T12:20:52;97497.84;;;20.50;85.33
57442;BME280;43284;47.042;15.498;2023-10-08T12:23:19;97497.72;;;20.51;90.21
57442;BME280;43284;47.042;15.498;2023-10-08T12:25:55;97496.84;;;20.51;89.06
57442;BME280;43284;47.042;15.498;2023-10-08T12:28:22;97494.47;;;20.48;85.17
57442;BME280;43284;47.042;15.498;2023-10-08T12:30:52;97501.47;;;20.49;84.52
57442;BME280;43284;47.042;15.498;2023-10-08T12:33:22;97488.72;;;20.43;80.40
57442;BME280;43284;47.042;15.498;2023-10-08T12:35:50;97480.03;;;20.41;82.08
57442;BME280;43284;47.042;15.498;2023-10-08T12:38:20;97481.38;;;20.35;86.44
57442;BME280;43284;47.042;15.498;2023-10-08T12:40:48;97472.69;;;20.33;83.69
57442;BME280;43284;47.042;15.498;2023-10-08T12:43:20;97471.72;;;20.34;84.22
57442;BME280;43284;47.042;15.498;2023-10-08T12:45:50;97473.56;;;20.33;83.14
57442;BME280;43284;47.042;15.498;2023-10-08T12:48:22;97483.31;;;20.33;84.60
57442;BME280;43284;47.042;15.498;2023-10-08T12:50:50;97483.69;;;20.28;85.01
57442;BME280;43284;47.042;15.498;2023-10-08T12:53:28;97473.44;;;20.24;86.77
57442;BME280;43284;47.042;15.498;2023-10-08T12:56:06;97477.59;;;20.16;87.83
57442;BME280;43284;47.042;15.498;2023-10-08T12:58:36;97476.53;;;20.08;89.79
57442;BME280;43284;47.042;15.498;2023-10-08T13:01:10;97475.53;;;19.88;93.23
57442;BME280;43284;47.042;15.498;2023-10-08T13:03:38;97473.25;;;19.83;96.00
57442;BME280;43284;47.042;15.498;2023-10-08T13:06:09;97473.75;;;19.77;100.00
57442;BME280;43284;47.042;15.498;2023-10-08T13:08:37;97477.59;;;19.73;100.00